Belmont, Washington
Current Conditions -  °F | °C
As of 4:53 AM on Wednesday 26 Nov 2014 (Local Time) from KPUW Reporting Station
Overcast Overcast  
Wind Chill: 42°   Ceiling: 2400
Heat Index: 42°   Visibility: 8mi
Dew Point: 42°   Wind: 3mph
Humidity: 100%   Direction: 230°SW
Pressure: 30.17"   Gusts: NA
Location:  47.09°N, 117.16°W
Report Text: KPUW 261253Z AUTO 23003KT 8SM SCT004 OVC024 06/06 A3017 RMK AO2 SLP231 T00560056
Loading
Personal Weather Stations






























Interactive Weather Map New forecast layout! Learn more

10-Day Weather Forecast

Advertisements
Track Severe Weather on mobile